createdAt,value
2023-03-08T00:00:09.521Z,697.00
2023-03-08T00:00:59.592Z,706.00
2023-03-08T00:01:49.678Z,715.00
2023-03-08T00:02:39.736Z,713.00
2023-03-08T00:03:29.783Z,705.00
2023-03-08T00:04:19.946Z,694.00
2023-03-08T00:05:09.850Z,692.00
2023-03-08T00:05:59.911Z,702.00
2023-03-08T00:06:49.999Z,713.00
2023-03-08T00:07:40.027Z,712.00
2023-03-08T00:08:30.116Z,704.00
2023-03-08T00:09:20.154Z,710.00
2023-03-08T00:10:10.449Z,708.00
2023-03-08T00:11:00.489Z,723.00
2023-03-08T00:11:50.563Z,727.00
2023-03-08T00:12:40.594Z,757.00
2023-03-08T00:13:30.665Z,748.00
2023-03-08T00:14:20.741Z,719.00
2023-03-08T00:15:10.818Z,725.00
2023-03-08T00:16:00.939Z,734.00
2023-03-08T00:16:50.917Z,761.00
2023-03-08T00:17:40.988Z,781.00
2023-03-08T00:18:31.046Z,789.00
2023-03-08T00:19:21.072Z,774.00
2023-03-08T00:20:11.332Z,770.00
2023-03-08T00:21:01.361Z,774.00
2023-03-08T00:21:51.452Z,773.00
2023-03-08T00:22:41.478Z,763.00
2023-03-08T00:23:31.565Z,765.00
2023-03-08T00:24:21.604Z,762.00
2023-03-08T00:25:11.654Z,781.00
2023-03-08T00:26:01.674Z,780.00
2023-03-08T00:26:51.755Z,771.00
2023-03-08T00:27:41.885Z,758.00
2023-03-08T00:28:31.872Z,764.00
2023-03-08T00:29:22.006Z,749.00
2023-03-08T00:30:11.976Z,753.00
2023-03-08T00:31:02.037Z,749.00
2023-03-08T00:31:52.041Z,760.00
2023-03-08T00:32:42.168Z,744.00
2023-03-08T00:33:32.257Z,731.00
2023-03-08T00:34:22.318Z,730.00
2023-03-08T00:35:12.334Z,719.00
2023-03-08T00:36:02.375Z,716.00
2023-03-08T00:36:52.406Z,728.00
2023-03-08T00:37:42.449Z,708.00
2023-03-08T00:38:32.557Z,718.00
2023-03-08T00:39:22.562Z,708.00
2023-03-08T00:40:12.636Z,699.00
2023-03-08T00:41:02.670Z,695.00
2023-03-08T00:41:52.718Z,693.00
2023-03-08T00:42:42.747Z,697.00
2023-03-08T00:43:32.827Z,703.00
2023-03-08T00:44:22.879Z,711.00
2023-03-08T00:45:12.915Z,705.00
2023-03-08T00:46:02.944Z,690.00
2023-03-08T00:46:53.058Z,698.00
2023-03-08T00:47:43.067Z,697.00
2023-03-08T00:48:33.139Z,700.00
2023-03-08T00:49:23.446Z,684.00
2023-03-08T00:50:13.508Z,685.00
2023-03-08T00:51:03.534Z,669.00
2023-03-08T00:51:53.571Z,675.00
2023-03-08T00:52:43.648Z,664.00
2023-03-08T00:53:33.661Z,666.00
2023-03-08T00:54:23.719Z,671.00
2023-03-08T00:55:13.762Z,664.00
2023-03-08T00:56:03.849Z,663.00
2023-03-08T00:56:53.906Z,659.00
2023-03-08T00:57:43.937Z,659.00
2023-03-08T00:58:33.990Z,659.00
2023-03-08T00:59:24.030Z,662.00
2023-03-08T01:00:14.074Z,653.00
2023-03-08T01:01:04.246Z,655.00
2023-03-08T01:01:54.182Z,653.00
2023-03-08T01:02:44.271Z,656.00
2023-03-08T01:03:34.328Z,651.00
2023-03-08T01:04:24.388Z,647.00
2023-03-08T01:05:14.403Z,650.00
2023-03-08T01:06:04.499Z,648.00
2023-03-08T01:06:54.581Z,644.00
2023-03-08T01:07:44.597Z,640.00
2023-03-08T01:08:34.632Z,640.00
2023-03-08T01:09:24.688Z,639.00
2023-03-08T01:10:14.725Z,638.00
2023-03-08T01:11:04.769Z,643.00
2023-03-08T01:11:54.804Z,640.00
2023-03-08T01:12:44.899Z,640.00
2023-03-08T01:13:34.971Z,641.00
2023-03-08T01:14:25.033Z,641.00
2023-03-08T01:15:15.061Z,643.00
2023-03-08T01:16:05.119Z,640.00
2023-03-08T01:16:55.188Z,642.00
2023-03-08T01:17:45.231Z,639.00
2023-03-08T01:18:35.263Z,635.00
2023-03-08T01:19:25.343Z,638.00
2023-03-08T01:20:15.366Z,635.00
2023-03-08T01:21:05.411Z,638.00
2023-03-08T01:21:55.478Z,638.00
2023-03-08T01:22:45.498Z,634.00
2023-03-08T01:23:35.577Z,636.00
2023-03-08T01:24:25.652Z,640.00
2023-03-08T01:25:15.658Z,635.00
2023-03-08T01:26:05.706Z,635.00
2023-03-08T01:26:55.756Z,637.00
2023-03-08T01:27:45.784Z,637.00
2023-03-08T01:28:35.820Z,638.00
2023-03-08T01:29:25.878Z,638.00
2023-03-08T01:30:15.963Z,635.00
2023-03-08T01:31:06.015Z,636.00
2023-03-08T01:31:56.055Z,635.00
2023-03-08T01:32:46.092Z,640.00
2023-03-08T01:33:36.131Z,640.00
2023-03-08T01:34:26.195Z,642.00
2023-03-08T01:35:16.230Z,642.00
2023-03-08T01:36:06.365Z,644.00
2023-03-08T01:36:56.378Z,641.00
2023-03-08T01:37:46.428Z,643.00
2023-03-08T01:38:36.449Z,643.00
2023-03-08T01:39:26.511Z,644.00
2023-03-08T01:40:16.575Z,650.00
2023-03-08T01:41:06.624Z,650.00
2023-03-08T01:41:56.653Z,646.00
2023-03-08T01:42:46.698Z,651.00
2023-03-08T01:43:36.783Z,653.00
2023-03-08T01:44:26.913Z,649.00
2023-03-08T01:45:16.914Z,652.00
2023-03-08T01:46:06.954Z,656.00
2023-03-08T01:46:56.990Z,649.00
2023-03-08T01:47:47.037Z,651.00
2023-03-08T01:48:37.068Z,650.00
2023-03-08T01:49:27.144Z,650.00
2023-03-08T01:50:17.229Z,648.00
2023-03-08T01:51:07.300Z,649.00
2023-03-08T01:51:57.332Z,653.00
2023-03-08T01:52:47.405Z,649.00
2023-03-08T01:53:37.441Z,648.00
2023-03-08T01:54:27.483Z,648.00
2023-03-08T01:55:17.529Z,649.00
2023-03-08T01:56:07.579Z,647.00
2023-03-08T01:56:57.656Z,648.00
2023-03-08T01:57:47.725Z,652.00
2023-03-08T01:58:37.760Z,652.00
2023-03-08T01:59:28.116Z,655.00
2023-03-08T02:00:18.157Z,652.00
2023-03-08T02:01:08.232Z,656.00
2023-03-08T02:01:58.221Z,659.00
2023-03-08T02:02:48.296Z,659.00
2023-03-08T02:03:38.345Z,657.00
2023-03-08T02:04:28.397Z,661.00
2023-03-08T02:05:18.423Z,666.00
2023-03-08T02:06:08.507Z,663.00
2023-03-08T02:06:58.536Z,663.00
2023-03-08T02:07:48.630Z,667.00
2023-03-08T02:08:38.649Z,664.00
2023-03-08T02:09:28.780Z,675.00
2023-03-08T02:10:18.787Z,671.00
2023-03-08T02:11:08.867Z,677.00
2023-03-08T02:11:58.908Z,681.00
2023-03-08T02:12:48.969Z,681.00
2023-03-08T02:13:39.001Z,688.00
2023-03-08T02:14:29.109Z,682.00
2023-03-08T02:15:19.359Z,675.00
2023-03-08T02:16:09.428Z,683.00
2023-03-08T02:16:59.461Z,685.00
2023-03-08T02:17:49.855Z,674.00
2023-03-08T02:18:39.846Z,685.00
2023-03-08T02:19:29.956Z,689.00
2023-03-08T02:20:19.988Z,683.00
2023-03-08T02:21:10.031Z,686.00
2023-03-08T02:22:00.105Z,689.00
2023-03-08T02:22:50.133Z,676.00
2023-03-08T02:23:40.155Z,680.00
2023-03-08T02:24:30.263Z,686.00
2023-03-08T02:25:20.316Z,689.00
2023-03-08T02:26:10.337Z,690.00
2023-03-08T02:27:00.362Z,685.00
2023-03-08T02:27:50.435Z,687.00
2023-03-08T02:28:40.481Z,672.00
2023-03-08T02:29:30.576Z,686.00
2023-03-08T02:30:20.619Z,683.00
2023-03-08T02:31:10.654Z,683.00
2023-03-08T02:32:00.697Z,675.00
2023-03-08T02:32:50.776Z,686.00
2023-03-08T02:33:41.069Z,695.00
2023-03-08T02:34:31.158Z,686.00
2023-03-08T02:35:21.197Z,687.00
2023-03-08T02:36:11.333Z,694.00
2023-03-08T02:37:01.325Z,693.00
2023-03-08T02:37:51.365Z,692.00
2023-03-08T02:38:41.391Z,689.00
2023-03-08T02:39:31.491Z,694.00
2023-03-08T02:40:21.586Z,687.00
2023-03-08T02:41:11.640Z,680.00
2023-03-08T02:42:01.657Z,681.00
2023-03-08T02:42:53.475Z,681.00
2023-03-08T02:43:41.727Z,681.00
2023-03-08T02:44:31.814Z,682.00
2023-03-08T02:45:21.851Z,683.00
2023-03-08T02:46:11.918Z,687.00
2023-03-08T02:47:01.968Z,690.00
2023-03-08T02:47:52.049Z,699.00
2023-03-08T02:48:42.079Z,684.00
2023-03-08T02:49:32.152Z,681.00
2023-03-08T02:50:22.436Z,682.00
2023-03-08T02:51:12.479Z,688.00
2023-03-08T02:52:02.521Z,696.00
2023-03-08T02:52:52.595Z,694.00
2023-03-08T02:53:42.629Z,685.00
2023-03-08T02:54:32.719Z,692.00
2023-03-08T02:55:22.756Z,674.00
2023-03-08T02:56:12.798Z,670.00
2023-03-08T02:57:02.896Z,677.00
2023-03-08T02:57:52.960Z,673.00
2023-03-08T02:58:42.987Z,668.00
2023-03-08T02:59:33.098Z,673.00
2023-03-08T03:00:23.123Z,689.00
2023-03-08T03:01:13.290Z,691.00
2023-03-08T03:02:03.226Z,668.00
2023-03-08T03:02:53.269Z,686.00
2023-03-08T03:03:43.315Z,682.00
2023-03-08T03:04:33.356Z,689.00
2023-03-08T03:05:23.387Z,687.00
2023-03-08T03:06:13.486Z,673.00
2023-03-08T03:07:03.555Z,683.00
2023-03-08T03:07:53.580Z,684.00
2023-03-08T03:08:43.630Z,679.00
2023-03-08T03:09:33.689Z,670.00
2023-03-08T03:10:23.710Z,666.00
2023-03-08T03:11:13.749Z,666.00
2023-03-08T03:12:03.788Z,670.00
2023-03-08T03:12:53.860Z,673.00
2023-03-08T03:13:43.901Z,663.00
2023-03-08T03:14:33.992Z,668.00
2023-03-08T03:15:24.003Z,666.00
2023-03-08T03:16:14.126Z,673.00
2023-03-08T03:17:04.265Z,664.00
2023-03-08T03:17:54.308Z,665.00
2023-03-08T03:18:44.341Z,665.00
2023-03-08T03:19:34.409Z,668.00
2023-03-08T03:20:24.451Z,664.00
2023-03-08T03:21:14.499Z,659.00
2023-03-08T03:22:04.534Z,663.00
2023-03-08T03:22:54.592Z,661.00
2023-03-08T03:23:44.671Z,659.00
2023-03-08T03:24:37.429Z,660.00
2023-03-08T03:25:24.792Z,657.00
2023-03-08T03:26:14.859Z,657.00
2023-03-08T03:27:04.889Z,657.00
2023-03-08T03:27:54.965Z,655.00
2023-03-08T03:28:45.050Z,654.00
2023-03-08T03:29:35.119Z,650.00
2023-03-08T03:30:25.152Z,652.00
2023-03-08T03:31:15.373Z,652.00
2023-03-08T03:32:05.354Z,653.00
2023-03-08T03:32:55.399Z,649.00
2023-03-08T03:33:45.434Z,646.00
2023-03-08T03:34:35.515Z,650.00
2023-03-08T03:35:25.541Z,646.00
2023-03-08T03:36:15.586Z,649.00
2023-03-08T03:37:05.624Z,650.00
2023-03-08T03:37:55.706Z,651.00
2023-03-08T03:38:45.739Z,648.00
2023-03-08T03:39:35.800Z,642.00
2023-03-08T03:40:25.849Z,643.00
2023-03-08T03:41:15.895Z,644.00
2023-03-08T03:42:05.959Z,648.00
2023-03-08T03:42:55.999Z,648.00
2023-03-08T03:43:46.046Z,649.00
2023-03-08T03:44:36.155Z,647.00
2023-03-08T03:45:26.167Z,641.00
2023-03-08T03:46:16.288Z,640.00
2023-03-08T03:47:06.257Z,642.00
2023-03-08T03:47:56.297Z,644.00
2023-03-08T03:48:46.333Z,643.00
2023-03-08T03:49:36.430Z,639.00
2023-03-08T03:50:26.467Z,641.00
2023-03-08T03:51:16.551Z,641.00
2023-03-08T03:52:06.590Z,640.00
2023-03-08T03:52:56.656Z,639.00
2023-03-08T03:53:46.697Z,642.00
2023-03-08T03:54:36.782Z,642.00
2023-03-08T03:55:26.810Z,642.00
2023-03-08T03:56:16.848Z,643.00
2023-03-08T03:57:06.890Z,639.00
2023-03-08T03:57:56.981Z,640.00
2023-03-08T03:58:47.008Z,636.00
2023-03-08T03:59:37.118Z,638.00
2023-03-08T04:00:27.221Z,639.00
2023-03-08T04:01:17.184Z,640.00
2023-03-08T04:02:07.211Z,642.00
2023-03-08T04:02:57.345Z,638.00
2023-03-08T04:03:47.325Z,642.00
2023-03-08T04:04:37.488Z,641.00
2023-03-08T04:05:27.527Z,640.00
2023-03-08T04:06:17.615Z,641.00
2023-03-08T04:07:07.654Z,636.00
2023-03-08T04:07:57.732Z,636.00
2023-03-08T04:08:47.768Z,636.00
2023-03-08T04:09:37.863Z,639.00
2023-03-08T04:10:27.901Z,633.00
2023-03-08T04:11:17.953Z,639.00
2023-03-08T04:12:07.986Z,640.00
2023-03-08T04:12:58.073Z,639.00
2023-03-08T04:13:48.099Z,637.00
2023-03-08T04:14:38.197Z,643.00
2023-03-08T04:15:28.238Z,639.00
2023-03-08T04:16:18.356Z,635.00
2023-03-08T04:17:08.374Z,638.00
2023-03-08T04:17:58.450Z,636.00
2023-03-08T04:18:48.483Z,635.00
2023-03-08T04:19:38.547Z,636.00
2023-03-08T04:20:28.578Z,633.00
2023-03-08T04:21:18.619Z,631.00
2023-03-08T04:22:08.651Z,635.00
2023-03-08T04:22:58.732Z,642.00
2023-03-08T04:23:48.768Z,640.00
2023-03-08T04:24:38.867Z,643.00
2023-03-08T04:25:28.907Z,642.00
2023-03-08T04:26:18.957Z,641.00
2023-03-08T04:27:08.980Z,637.00
2023-03-08T04:27:59.040Z,636.00
2023-03-08T04:28:49.067Z,637.00
2023-03-08T04:29:39.120Z,640.00
2023-03-08T04:30:29.167Z,642.00
2023-03-08T04:31:19.342Z,641.00
2023-03-08T04:32:09.358Z,641.00
2023-03-08T04:32:59.369Z,640.00
2023-03-08T04:33:49.408Z,643.00
2023-03-08T04:34:39.472Z,638.00
2023-03-08T04:35:29.488Z,641.00
2023-03-08T04:36:19.520Z,638.00
2023-03-08T04:37:09.542Z,638.00
2023-03-08T04:37:59.715Z,640.00
2023-03-08T04:38:49.755Z,639.00
2023-03-08T04:39:39.813Z,639.00
2023-03-08T04:40:29.855Z,639.00
2023-03-08T04:41:19.894Z,639.00
2023-03-08T04:42:09.954Z,642.00
2023-03-08T04:42:59.987Z,640.00
2023-03-08T04:43:50.022Z,642.00
2023-03-08T04:44:40.136Z,638.00
2023-03-08T04:45:30.173Z,641.00
2023-03-08T04:46:20.278Z,645.00
2023-03-08T04:47:10.271Z,645.00
2023-03-08T04:48:00.333Z,646.00
2023-03-08T04:48:50.343Z,647.00
2023-03-08T04:49:40.410Z,651.00
2023-03-08T04:50:30.441Z,657.00
2023-03-08T04:51:20.526Z,654.00
2023-03-08T04:52:10.560Z,647.00
2023-03-08T04:53:00.603Z,657.00
2023-03-08T04:53:50.643Z,659.00
2023-03-08T04:54:40.703Z,660.00
2023-03-08T04:55:30.732Z,665.00
2023-03-08T04:56:20.766Z,675.00
2023-03-08T04:57:10.806Z,666.00
2023-03-08T04:58:00.884Z,673.00
2023-03-08T04:58:50.926Z,662.00
2023-03-08T04:59:40.986Z,662.00
2023-03-08T05:00:31.005Z,659.00
2023-03-08T05:01:21.089Z,657.00
2023-03-08T05:02:11.168Z,658.00
2023-03-08T05:03:01.164Z,658.00
2023-03-08T05:03:51.224Z,657.00
2023-03-08T05:04:41.312Z,659.00
2023-03-08T05:05:31.304Z,663.00
2023-03-08T05:06:21.392Z,660.00
2023-03-08T05:07:11.419Z,661.00
2023-03-08T05:08:01.462Z,661.00
2023-03-08T05:08:51.503Z,660.00
2023-03-08T05:09:42.967Z,660.00
2023-03-08T05:10:31.637Z,658.00
2023-03-08T05:11:21.737Z,661.00
2023-03-08T05:12:11.771Z,657.00
2023-03-08T05:13:01.809Z,658.00
2023-03-08T05:13:51.842Z,656.00
2023-03-08T05:14:41.909Z,657.00
2023-03-08T05:15:31.938Z,655.00
2023-03-08T05:16:22.055Z,659.00
2023-03-08T05:17:12.068Z,659.00
2023-03-08T05:18:02.114Z,665.00
2023-03-08T05:18:52.153Z,659.00
2023-03-08T05:19:42.364Z,660.00
2023-03-08T05:20:32.225Z,665.00
2023-03-08T05:21:22.263Z,673.00
2023-03-08T05:22:12.310Z,661.00
2023-03-08T05:23:02.368Z,658.00
2023-03-08T05:23:52.562Z,662.00
2023-03-08T05:24:42.610Z,662.00
2023-03-08T05:25:32.640Z,664.00
2023-03-08T05:26:22.720Z,662.00
2023-03-08T05:27:12.754Z,661.00
2023-03-08T05:28:02.849Z,670.00
2023-03-08T05:28:52.860Z,665.00
2023-03-08T05:29:42.933Z,666.00
2023-03-08T05:30:32.962Z,662.00
2023-03-08T05:31:23.151Z,661.00
2023-03-08T05:32:13.074Z,663.00
2023-03-08T05:33:03.114Z,655.00
2023-03-08T05:33:53.140Z,659.00
2023-03-08T05:34:43.211Z,655.00
2023-03-08T05:35:33.277Z,659.00
2023-03-08T05:36:23.273Z,658.00
2023-03-08T05:37:13.363Z,657.00
2023-03-08T05:38:03.422Z,663.00
2023-03-08T05:38:53.462Z,659.00
2023-03-08T05:39:43.525Z,663.00
2023-03-08T05:40:33.563Z,664.00
2023-03-08T05:41:23.610Z,661.00
2023-03-08T05:42:13.657Z,665.00
2023-03-08T05:43:03.719Z,664.00
2023-03-08T05:43:53.770Z,672.00
2023-03-08T05:44:43.831Z,664.00
2023-03-08T05:45:34.091Z,660.00
2023-03-08T05:46:23.962Z,658.00
2023-03-08T05:47:13.977Z,662.00
2023-03-08T05:48:04.032Z,661.00
2023-03-08T05:48:54.068Z,663.00
2023-03-08T05:49:44.117Z,658.00
2023-03-08T05:50:34.207Z,666.00
2023-03-08T05:51:24.261Z,667.00
2023-03-08T05:52:14.277Z,658.00
2023-03-08T05:53:04.312Z,666.00
2023-03-08T05:53:54.354Z,666.00
2023-03-08T05:54:44.411Z,659.00
2023-03-08T05:55:34.451Z,657.00
2023-03-08T05:56:24.496Z,659.00
2023-03-08T05:57:14.584Z,660.00
2023-03-08T05:58:04.640Z,659.00
2023-03-08T05:58:54.669Z,661.00
2023-03-08T05:59:44.769Z,657.00
2023-03-08T06:00:34.810Z,653.00
2023-03-08T06:01:24.871Z,654.00
2023-03-08T06:02:14.936Z,656.00
2023-03-08T06:03:05.021Z,657.00
2023-03-08T06:03:55.075Z,662.00
2023-03-08T06:04:45.133Z,655.00
2023-03-08T06:05:35.166Z,662.00
2023-03-08T06:06:25.209Z,660.00
2023-03-08T06:07:15.265Z,660.00
2023-03-08T06:08:05.300Z,657.00
2023-03-08T06:08:55.326Z,661.00
2023-03-08T06:09:45.391Z,659.00
2023-03-08T06:10:35.476Z,658.00
2023-03-08T06:11:25.513Z,657.00
2023-03-08T06:12:15.549Z,663.00
2023-03-08T06:13:05.599Z,659.00
2023-03-08T06:13:55.643Z,660.00
2023-03-08T06:14:45.699Z,663.00
2023-03-08T06:15:35.727Z,656.00
2023-03-08T06:16:25.812Z,658.00
2023-03-08T06:17:15.854Z,660.00
2023-03-08T06:18:05.942Z,661.00
2023-03-08T06:18:55.979Z,661.00
2023-03-08T06:19:46.034Z,662.00
2023-03-08T06:20:36.084Z,661.00
2023-03-08T06:21:26.110Z,659.00
2023-03-08T06:22:16.142Z,661.00
2023-03-08T06:23:06.207Z,665.00
2023-03-08T06:23:56.259Z,659.00
2023-03-08T06:24:46.363Z,658.00
2023-03-08T06:25:36.398Z,659.00
2023-03-08T06:26:26.433Z,661.00
2023-03-08T06:27:16.472Z,659.00
2023-03-08T06:28:06.519Z,657.00
2023-03-08T06:28:56.554Z,655.00
2023-03-08T06:29:46.618Z,660.00
2023-03-08T06:30:36.711Z,660.00
2023-03-08T06:31:26.746Z,658.00
2023-03-08T06:32:16.842Z,658.00
2023-03-08T06:33:06.859Z,657.00
2023-03-08T06:33:56.888Z,653.00
2023-03-08T06:34:47.040Z,661.00
2023-03-08T06:35:37.077Z,661.00
2023-03-08T06:36:27.078Z,662.00
2023-03-08T06:37:17.111Z,664.00
2023-03-08T06:38:07.179Z,665.00
2023-03-08T06:38:57.254Z,670.00
2023-03-08T06:39:47.280Z,666.00
2023-03-08T06:40:37.325Z,667.00
2023-03-08T06:41:27.373Z,665.00
2023-03-08T06:42:17.402Z,674.00
2023-03-08T06:43:07.463Z,672.00
2023-03-08T06:43:57.538Z,679.00
2023-03-08T06:44:47.609Z,672.00
2023-03-08T06:45:37.640Z,665.00
2023-03-08T06:46:27.831Z,670.00
2023-03-08T06:47:17.773Z,664.00
2023-03-08T06:48:07.849Z,662.00
2023-03-08T06:48:57.882Z,660.00
2023-03-08T06:49:47.946Z,658.00
2023-03-08T06:50:38.120Z,662.00
2023-03-08T06:51:28.153Z,662.00
2023-03-08T06:52:18.185Z,657.00
2023-03-08T06:53:08.237Z,656.00
2023-03-08T06:53:58.258Z,655.00
2023-03-08T06:54:48.355Z,654.00
2023-03-08T06:55:38.361Z,656.00
2023-03-08T06:56:28.446Z,660.00
2023-03-08T06:57:18.479Z,660.00
2023-03-08T06:58:08.560Z,656.00
2023-03-08T06:58:58.594Z,651.00
2023-03-08T06:59:48.656Z,660.00
2023-03-08T07:00:38.700Z,656.00
2023-03-08T07:01:28.821Z,657.00
2023-03-08T07:02:18.776Z,660.00
2023-03-08T07:03:08.803Z,660.00
2023-03-08T07:03:58.998Z,660.00
2023-03-08T07:04:49.761Z,664.00
2023-03-08T07:05:38.975Z,664.00
2023-03-08T07:06:29.054Z,664.00
2023-03-08T07:07:19.133Z,661.00
2023-03-08T07:08:09.149Z,660.00
2023-03-08T07:08:59.201Z,661.00
2023-03-08T07:09:49.244Z,665.00
2023-03-08T07:10:39.437Z,665.00
2023-03-08T07:11:29.468Z,664.00
2023-03-08T07:12:19.496Z,666.00
2023-03-08T07:13:09.547Z,661.00
2023-03-08T07:13:59.582Z,665.00
2023-03-08T07:14:49.649Z,664.00
2023-03-08T07:15:39.709Z,664.00
2023-03-08T07:16:29.733Z,670.00
2023-03-08T07:17:19.824Z,665.00
2023-03-08T07:18:09.864Z,673.00
2023-03-08T07:18:59.886Z,659.00
2023-03-08T07:19:49.957Z,673.00
2023-03-08T07:20:40.001Z,660.00
2023-03-08T07:21:30.089Z,664.00
2023-03-08T07:22:20.112Z,659.00
2023-03-08T07:23:10.150Z,659.00
2023-03-08T07:24:00.232Z,658.00
2023-03-08T07:24:50.334Z,658.00
2023-03-08T07:25:40.370Z,660.00
2023-03-08T07:26:30.447Z,662.00
2023-03-08T07:27:20.454Z,666.00
2023-03-08T07:28:10.504Z,664.00
2023-03-08T07:29:00.526Z,662.00
2023-03-08T07:29:50.638Z,663.00
2023-03-08T07:30:40.657Z,660.00
2023-03-08T07:31:30.699Z,665.00
2023-03-08T07:32:20.941Z,660.00
2023-03-08T07:33:10.824Z,667.00
2023-03-08T07:34:00.827Z,663.00
2023-03-08T07:34:50.879Z,660.00
2023-03-08T07:35:40.980Z,660.00
2023-03-08T07:36:31.007Z,665.00
2023-03-08T07:37:21.082Z,662.00
2023-03-08T07:38:11.120Z,665.00
2023-03-08T07:39:01.161Z,658.00
2023-03-08T07:39:51.232Z,659.00
2023-03-08T07:40:41.265Z,660.00
2023-03-08T07:41:31.305Z,660.00
2023-03-08T07:42:21.368Z,659.00
2023-03-08T07:43:11.401Z,657.00
2023-03-08T07:44:01.467Z,659.00
2023-03-08T07:44:51.550Z,654.00
2023-03-08T07:45:41.546Z,662.00
2023-03-08T07:46:31.648Z,662.00
2023-03-08T07:47:21.660Z,664.00
2023-03-08T07:48:11.689Z,658.00
2023-03-08T07:49:01.715Z,669.00
2023-03-08T07:49:51.780Z,661.00
2023-03-08T07:50:41.900Z,666.00
2023-03-08T07:51:31.947Z,664.00
2023-03-08T07:52:21.980Z,662.00
2023-03-08T07:53:12.021Z,660.00
2023-03-08T07:54:02.057Z,660.00
2023-03-08T07:54:52.136Z,662.00
2023-03-08T07:55:42.163Z,662.00
2023-03-08T07:56:32.206Z,658.00
2023-03-08T07:57:22.291Z,662.00
2023-03-08T07:58:12.364Z,662.00
2023-03-08T07:59:02.374Z,665.00
2023-03-08T07:59:54.421Z,672.00
2023-03-08T08:00:42.504Z,664.00
2023-03-08T08:01:32.534Z,664.00
2023-03-08T08:02:22.603Z,665.00
2023-03-08T08:03:12.786Z,662.00
2023-03-08T08:04:02.772Z,663.00
2023-03-08T08:04:53.063Z,661.00
2023-03-08T08:05:43.021Z,664.00
2023-03-08T08:06:32.995Z,662.00
2023-03-08T08:07:23.032Z,660.00
2023-03-08T08:08:13.076Z,666.00
2023-03-08T08:09:03.117Z,666.00
2023-03-08T08:09:53.220Z,671.00
2023-03-08T08:10:43.263Z,668.00
2023-03-08T08:11:33.330Z,676.00
2023-03-08T08:12:23.370Z,670.00
2023-03-08T08:13:13.413Z,670.00
2023-03-08T08:14:03.488Z,668.00
2023-03-08T08:14:53.509Z,672.00
2023-03-08T08:15:43.558Z,665.00
2023-03-08T08:16:33.674Z,664.00
2023-03-08T08:17:23.678Z,664.00
2023-03-08T08:18:13.763Z,666.00
2023-03-08T08:19:03.801Z,664.00
2023-03-08T08:19:53.895Z,663.00
2023-03-08T08:20:44.180Z,673.00
2023-03-08T08:21:34.218Z,677.00
2023-03-08T08:22:24.307Z,678.00
2023-03-08T08:23:14.334Z,665.00
2023-03-08T08:24:04.366Z,665.00
2023-03-08T08:24:54.461Z,676.00
2023-03-08T08:25:44.492Z,661.00
2023-03-08T08:26:34.537Z,663.00
2023-03-08T08:27:24.668Z,662.00
2023-03-08T08:28:14.707Z,667.00
2023-03-08T08:29:04.742Z,662.00
2023-03-08T08:29:54.820Z,667.00
2023-03-08T08:30:44.833Z,668.00
2023-03-08T08:31:34.976Z,674.00
2023-03-08T08:32:25.060Z,687.00
2023-03-08T08:33:15.015Z,681.00
2023-03-08T08:34:05.094Z,679.00
2023-03-08T08:34:55.156Z,679.00
2023-03-08T08:35:45.278Z,682.00
2023-03-08T08:36:35.267Z,684.00
2023-03-08T08:37:25.296Z,680.00
2023-03-08T08:38:15.386Z,687.00
2023-03-08T08:39:05.415Z,685.00
2023-03-08T08:39:55.472Z,676.00
2023-03-08T08:40:45.527Z,689.00
2023-03-08T08:41:35.564Z,686.00
2023-03-08T08:42:25.593Z,686.00
2023-03-08T08:43:15.687Z,686.00
2023-03-08T08:44:05.713Z,679.00
2023-03-08T08:44:55.792Z,669.00
2023-03-08T08:45:45.906Z,677.00
2023-03-08T08:46:35.880Z,666.00
2023-03-08T08:47:25.954Z,675.00
2023-03-08T08:48:15.990Z,679.00
2023-03-08T08:49:06.023Z,686.00
2023-03-08T08:49:56.103Z,685.00
2023-03-08T08:50:46.132Z,681.00
2023-03-08T08:51:36.170Z,685.00
2023-03-08T08:52:26.230Z,672.00
2023-03-08T08:53:16.328Z,677.00
2023-03-08T08:54:06.412Z,675.00
2023-03-08T08:54:56.432Z,670.00
2023-03-08T08:55:46.482Z,667.00
2023-03-08T08:56:36.516Z,684.00
2023-03-08T08:57:26.555Z,675.00
2023-03-08T08:58:16.607Z,692.00
2023-03-08T08:59:06.632Z,684.00
2023-03-08T08:59:56.694Z,687.00
2023-03-08T09:00:46.787Z,685.00
2023-03-08T09:01:36.847Z,687.00
2023-03-08T09:02:26.999Z,685.00
2023-03-08T09:03:16.927Z,677.00
2023-03-08T09:04:07.030Z,673.00
2023-03-08T09:04:57.133Z,679.00
2023-03-08T09:05:47.054Z,694.00
2023-03-08T09:06:37.101Z,687.00
2023-03-08T09:07:27.182Z,696.00
2023-03-08T09:08:17.222Z,685.00
2023-03-08T09:09:07.256Z,682.00
2023-03-08T09:09:57.317Z,682.00
2023-03-08T09:10:47.349Z,683.00
2023-03-08T09:11:48.433Z,684.00
2023-03-08T09:12:28.448Z,680.00
2023-03-08T09:13:17.501Z,679.00
2023-03-08T09:14:07.558Z,673.00
2023-03-08T09:14:57.656Z,685.00
2023-03-08T09:15:47.684Z,672.00
2023-03-08T09:16:37.775Z,676.00
2023-03-08T09:17:27.808Z,672.00
2023-03-08T09:18:17.959Z,676.00
2023-03-08T09:19:07.988Z,665.00
2023-03-08T09:19:58.046Z,689.00
2023-03-08T09:20:48.082Z,666.00
2023-03-08T09:21:38.130Z,670.00
2023-03-08T09:22:28.185Z,668.00
2023-03-08T09:23:18.245Z,683.00
2023-03-08T09:24:08.255Z,680.00
2023-03-08T09:24:58.354Z,672.00
2023-03-08T09:25:48.396Z,682.00
2023-03-08T09:26:38.451Z,679.00
2023-03-08T09:27:28.476Z,667.00
2023-03-08T09:28:18.521Z,687.00
2023-03-08T09:29:08.563Z,692.00
2023-03-08T09:29:58.619Z,686.00
2023-03-08T09:30:48.665Z,678.00
2023-03-08T09:31:38.889Z,667.00
2023-03-08T09:32:28.859Z,683.00
2023-03-08T09:33:18.875Z,674.00
2023-03-08T09:34:09.598Z,668.00
2023-03-08T09:34:58.950Z,681.00
2023-03-08T09:35:48.988Z,688.00
2023-03-08T09:36:39.026Z,676.00
2023-03-08T09:37:29.064Z,662.00
2023-03-08T09:38:19.103Z,668.00
2023-03-08T09:39:09.150Z,679.00
2023-03-08T09:39:59.244Z,660.00
2023-03-08T09:40:49.282Z,678.00
2023-03-08T09:41:39.333Z,674.00
2023-03-08T09:42:29.381Z,680.00
2023-03-08T09:43:19.419Z,672.00
2023-03-08T09:44:09.459Z,676.00
2023-03-08T09:44:59.524Z,682.00
2023-03-08T09:45:49.604Z,688.00
2023-03-08T09:46:39.654Z,681.00
2023-03-08T09:47:29.702Z,695.00
2023-03-08T09:48:19.784Z,692.00
2023-03-08T09:49:09.879Z,697.00
2023-03-08T09:49:59.880Z,700.00
2023-03-08T09:50:49.928Z,680.00
2023-03-08T09:51:39.958Z,673.00
2023-03-08T09:52:30.000Z,672.00
2023-03-08T09:53:20.102Z,677.00
2023-03-08T09:54:10.137Z,679.00
2023-03-08T09:55:00.276Z,686.00
2023-03-08T09:55:50.224Z,676.00
2023-03-08T09:56:40.267Z,683.00
2023-03-08T09:57:30.375Z,679.00
2023-03-08T09:58:20.343Z,678.00
2023-03-08T09:59:10.385Z,672.00
2023-03-08T10:00:00.541Z,670.00
2023-03-08T10:00:50.613Z,681.00
2023-03-08T10:01:40.629Z,698.00
2023-03-08T10:02:30.669Z,682.00
2023-03-08T10:03:20.723Z,690.00
2023-03-08T10:04:10.833Z,720.00
2023-03-08T10:05:12.340Z,698.00
2023-03-08T10:05:51.829Z,698.00
2023-03-08T10:06:40.875Z,699.00
2023-03-08T10:07:30.903Z,702.00
2023-03-08T10:08:20.988Z,704.00
2023-03-08T10:09:11.015Z,698.00
2023-03-08T10:10:01.116Z,689.00
2023-03-08T10:10:51.148Z,705.00
2023-03-08T10:11:41.350Z,705.00
2023-03-08T10:12:31.406Z,700.00
2023-03-08T10:13:21.435Z,708.00
2023-03-08T10:14:11.466Z,706.00
2023-03-08T10:15:01.526Z,699.00
2023-03-08T10:15:51.552Z,705.00
2023-03-08T10:16:41.713Z,704.00
2023-03-08T10:17:31.673Z,714.00
2023-03-08T10:18:21.817Z,715.00
2023-03-08T10:19:11.862Z,703.00
2023-03-08T10:20:01.958Z,707.00
2023-03-08T10:20:52.011Z,701.00
2023-03-08T10:21:42.031Z,705.00
2023-03-08T10:22:32.065Z,688.00
2023-03-08T10:23:22.107Z,702.00
2023-03-08T10:24:12.149Z,692.00